KMDW/MDW METAR and TAF weather

Enter ICAO airport designator
Station Type Date Time Source
KMDW METAR 2020/05/30 03:53 UTC NOAA

KMDW 300353Z 30005KT 10SM FEW050 16/08 A3010 RMK AO2 SLP187 T01610078 $


Station Type Date Time Source
KMDW Decoded METAR 2020/05/30 03:53 UTC NOAA

CHICAGO MIDWAY AIRPORT, IL, United States (KMDW) 41-47N 087-45W 188M
May 29, 2020 - 11:53 PM EDT / 2020.05.30 0353 UTC
Wind: from the WNW (300 degrees) at 6 MPH (5 KT):0
Visibility: 10 mile(s):0
Sky conditions: mostly clear
Temperature: 61.0 F (16.1 C)
Dew Point: 46.0 F (7.8 C)
Relative Humidity: 57%
Pressure (altimeter): 30.1 in. Hg (1019 hPa)
ob: KMDW 300353Z 30005KT 10SM FEW050 16/08 A3010 RMK AO2 SLP187 T01610078
cycle: 4

Station Type Date Time Source
KMDW TAF 2020/05/30 03:04 UTC NOAA

TAF
AMD KMDW 300301Z 3003/3106 31007KT P6SM SCT050
FM301500 33009KT P6SM BKN050
FM302000 04010KT P6SM SCT060
FM310200 02007KT P6SM SKC

Example: see airport list